createdAt,value
2017-10-18T00:00:00.348Z,0
2017-10-18T00:00:40.753Z,0
2017-10-18T00:01:21.637Z,0
2017-10-18T00:02:01.690Z,0
2017-10-18T00:02:42.233Z,0
2017-10-18T00:03:22.556Z,0
2017-10-18T00:04:03.107Z,0
2017-10-18T00:04:43.530Z,0
2017-10-18T00:05:23.978Z,0
2017-10-18T00:06:04.335Z,0
2017-10-18T00:06:44.727Z,0
2017-10-18T00:07:25.150Z,0
2017-10-18T00:08:05.597Z,0
2017-10-18T00:08:46.007Z,0
2017-10-18T00:09:26.643Z,0
2017-10-18T00:10:07.011Z,0
2017-10-18T00:10:47.443Z,0
2017-10-18T00:11:27.916Z,0
2017-10-18T00:12:08.498Z,0
2017-10-18T00:12:48.805Z,0
2017-10-18T00:13:29.215Z,0
2017-10-18T00:14:09.673Z,0
2017-10-18T00:14:50.061Z,0
2017-10-18T00:15:30.414Z,0
2017-10-18T00:16:10.797Z,0
2017-10-18T00:16:51.419Z,0
2017-10-18T00:17:31.860Z,0
2017-10-18T00:18:12.435Z,0
2017-10-18T00:18:52.777Z,0
2017-10-18T00:19:33.139Z,0
2017-10-18T00:20:13.734Z,0
2017-10-18T00:20:54.116Z,0
2017-10-18T00:21:34.502Z,0
2017-10-18T00:22:15.043Z,0
2017-10-18T00:22:55.452Z,0
2017-10-18T00:23:35.910Z,0
2017-10-18T00:24:16.521Z,0
2017-10-18T00:24:57.037Z,0
2017-10-18T00:25:37.359Z,0
2017-10-18T00:26:17.741Z,0
2017-10-18T00:26:58.187Z,0
2017-10-18T00:27:38.594Z,0
2017-10-18T00:28:19.030Z,0
2017-10-18T00:28:59.432Z,0
2017-10-18T00:29:39.978Z,0
2017-10-18T00:30:20.607Z,0
2017-10-18T00:31:01.066Z,0
2017-10-18T00:31:41.602Z,0
2017-10-18T00:32:22.137Z,0
2017-10-18T00:33:02.541Z,0
2017-10-18T00:33:43.015Z,0
2017-10-18T00:34:23.382Z,0
2017-10-18T00:35:03.885Z,0
2017-10-18T00:35:44.246Z,0
2017-10-18T00:36:24.725Z,0
2017-10-18T00:37:05.103Z,0
2017-10-18T00:37:45.724Z,0
2017-10-18T00:38:26.028Z,0
2017-10-18T00:39:06.734Z,0
2017-10-18T00:39:47.147Z,0
2017-10-18T00:40:27.638Z,0
2017-10-18T00:41:08.145Z,0
2017-10-18T00:41:48.513Z,0
2017-10-18T00:42:29.262Z,0
2017-10-18T00:43:09.712Z,0
2017-10-18T00:43:50.169Z,0
2017-10-18T00:44:31.890Z,0
2017-10-18T00:45:12.061Z,0
2017-10-18T00:45:52.579Z,0
2017-10-18T00:46:33.224Z,0
2017-10-18T00:47:13.721Z,0
2017-10-18T00:47:54.210Z,0
2017-10-18T00:48:34.825Z,0
2017-10-18T00:49:15.387Z,0
2017-10-18T00:49:56.092Z,0
2017-10-18T00:50:36.696Z,0
2017-10-18T00:51:17.031Z,0
2017-10-18T00:51:57.535Z,0
2017-10-18T00:52:38.064Z,0
2017-10-18T00:53:18.485Z,0
2017-10-18T00:53:59.080Z,0
2017-10-18T00:54:39.496Z,0
2017-10-18T00:55:19.980Z,0
2017-10-18T00:56:00.431Z,0
2017-10-18T00:56:40.822Z,0
2017-10-18T00:57:21.407Z,0
2017-10-18T00:58:01.822Z,0
2017-10-18T00:58:42.678Z,0
2017-10-18T00:59:23.462Z,0
2017-10-18T01:00:03.888Z,0
2017-10-18T01:00:44.469Z,0
2017-10-18T01:01:25.143Z,0
2017-10-18T01:02:05.746Z,0
2017-10-18T01:02:46.115Z,0
2017-10-18T01:03:26.953Z,0
2017-10-18T01:04:07.749Z,0
2017-10-18T01:04:48.501Z,0
2017-10-18T01:05:29.095Z,0
2017-10-18T01:06:09.869Z,0
2017-10-18T01:06:50.366Z,0
2017-10-18T01:07:30.929Z,0
2017-10-18T01:08:11.426Z,0
2017-10-18T01:08:51.906Z,0
2017-10-18T01:09:32.259Z,0
2017-10-18T01:10:13.016Z,0
2017-10-18T01:10:53.558Z,0
2017-10-18T01:11:34.001Z,0
2017-10-18T01:12:15.077Z,0
2017-10-18T01:12:55.784Z,0
2017-10-18T01:13:36.423Z,0
2017-10-18T01:14:17.798Z,0
2017-10-18T01:14:58.638Z,0
2017-10-18T01:15:39.107Z,0
2017-10-18T01:18:27.078Z,0
2017-10-18T01:19:19.354Z,0
2017-10-18T01:20:11.902Z,0
2017-10-18T01:21:05.114Z,0
2017-10-18T01:21:57.428Z,0
2017-10-18T01:22:50.410Z,0
2017-10-18T01:23:43.037Z,0
2017-10-18T01:24:35.815Z,0
2017-10-18T01:25:27.936Z,0
2017-10-18T01:26:20.437Z,0
2017-10-18T01:27:12.473Z,0
2017-10-18T01:28:05.414Z,0
2017-10-18T01:28:58.123Z,0
2017-10-18T01:29:51.021Z,0
2017-10-18T01:30:43.867Z,0
2017-10-18T01:31:36.440Z,0
2017-10-18T01:32:29.337Z,0
2017-10-18T01:33:22.488Z,0
2017-10-18T01:34:14.740Z,0
2017-10-18T01:35:07.890Z,0
2017-10-18T01:35:59.923Z,0
2017-10-18T01:36:51.870Z,0
2017-10-18T01:37:44.789Z,0
2017-10-18T01:38:38.442Z,0
2017-10-18T01:39:30.371Z,0
2017-10-18T01:40:22.770Z,0
2017-10-18T01:41:14.896Z,0
2017-10-18T01:42:07.013Z,0
2017-10-18T01:42:59.308Z,0
2017-10-18T01:43:52.629Z,0
2017-10-18T01:44:45.696Z,0
2017-10-18T01:45:37.666Z,0
2017-10-18T01:46:29.328Z,0
2017-10-18T01:47:22.243Z,0
2017-10-18T01:48:14.535Z,0
2017-10-18T01:49:07.982Z,0
2017-10-18T01:50:01.129Z,0
2017-10-18T01:50:52.800Z,0
2017-10-18T01:51:42.944Z,0
2017-10-18T01:52:23.790Z,0
2017-10-18T01:53:04.274Z,0
2017-10-18T01:53:44.910Z,0
2017-10-18T01:54:26.906Z,0
2017-10-18T01:55:07.333Z,0
2017-10-18T01:55:48.105Z,0
2017-10-18T01:56:29.793Z,0
2017-10-18T01:57:10.109Z,0
2017-10-18T01:57:50.871Z,0
2017-10-18T01:58:31.661Z,0
2017-10-18T02:00:46.628Z,0
2017-10-18T02:01:27.017Z,0
2017-10-18T02:02:07.424Z,0
2017-10-18T02:02:47.869Z,0
2017-10-18T02:03:28.263Z,0
2017-10-18T02:04:08.685Z,0
2017-10-18T02:04:49.123Z,0
2017-10-18T02:05:29.484Z,0
2017-10-18T02:06:09.887Z,0
2017-10-18T02:09:49.644Z,0
2017-10-18T02:10:30.837Z,0
2017-10-18T02:11:11.225Z,0
2017-10-18T02:11:51.673Z,0
2017-10-18T02:12:32.083Z,0
2017-10-18T02:13:12.544Z,0
2017-10-18T02:13:52.887Z,0
2017-10-18T02:14:33.277Z,0
2017-10-18T02:15:13.669Z,0
2017-10-18T02:15:54.072Z,0
2017-10-18T02:16:34.466Z,0
2017-10-18T02:17:14.881Z,0
2017-10-18T02:17:55.270Z,0
2017-10-18T02:18:35.661Z,0
2017-10-18T02:19:16.117Z,0
2017-10-18T02:19:56.504Z,0
2017-10-18T02:20:37.033Z,0
2017-10-18T02:21:17.462Z,0
2017-10-18T02:21:57.901Z,0
2017-10-18T02:22:38.294Z,0
2017-10-18T02:23:18.737Z,0
2017-10-18T02:23:59.151Z,0
2017-10-18T02:24:39.547Z,0
2017-10-18T02:25:19.948Z,0
2017-10-18T02:26:00.347Z,0
2017-10-18T02:26:40.784Z,0
2017-10-18T02:29:08.909Z,0
2017-10-18T02:29:49.038Z,0
2017-10-18T02:30:29.444Z,0
2017-10-18T02:31:09.867Z,0
2017-10-18T02:31:50.289Z,0
2017-10-18T02:32:30.696Z,0
2017-10-18T02:33:11.124Z,0
2017-10-18T02:33:51.534Z,0
2017-10-18T02:34:31.978Z,0
2017-10-18T02:35:12.348Z,0
2017-10-18T02:35:52.764Z,0
2017-10-18T02:36:33.148Z,0
2017-10-18T02:37:13.583Z,0
2017-10-18T02:37:54.012Z,0
2017-10-18T02:38:34.398Z,0
2017-10-18T02:39:14.813Z,0
2017-10-18T02:39:55.199Z,0
2017-10-18T02:40:35.602Z,0
2017-10-18T02:41:16.010Z,0
2017-10-18T02:41:56.421Z,0
2017-10-18T02:42:36.870Z,0
2017-10-18T02:43:17.284Z,0
2017-10-18T02:43:57.691Z,0
2017-10-18T02:44:38.126Z,0
2017-10-18T02:45:18.535Z,0
2017-10-18T02:45:58.935Z,0
2017-10-18T02:46:39.342Z,0
2017-10-18T02:47:19.736Z,0
2017-10-18T02:48:00.147Z,0
2017-10-18T02:48:40.553Z,0
2017-10-18T02:49:21.009Z,0
2017-10-18T02:50:01.377Z,0
2017-10-18T02:50:41.781Z,0
2017-10-18T02:51:22.164Z,0
2017-10-18T02:52:02.577Z,0
2017-10-18T02:52:43.072Z,0
2017-10-18T02:53:23.451Z,0
2017-10-18T02:54:03.961Z,0
2017-10-18T02:54:44.346Z,0
2017-10-18T02:55:24.766Z,0
2017-10-18T02:56:05.206Z,0
2017-10-18T02:56:45.569Z,0
2017-10-18T02:57:25.966Z,0
2017-10-18T02:58:06.408Z,0
2017-10-18T02:58:46.786Z,0
2017-10-18T02:59:27.189Z,0
2017-10-18T03:00:07.585Z,0
2017-10-18T03:00:47.994Z,0
2017-10-18T03:04:08.337Z,0
2017-10-18T03:04:48.517Z,0
2017-10-18T03:05:28.903Z,0
2017-10-18T03:06:09.351Z,0
2017-10-18T03:06:49.726Z,0
2017-10-18T03:07:30.144Z,0
2017-10-18T03:08:10.574Z,0
2017-10-18T03:08:50.988Z,0
2017-10-18T03:09:31.389Z,0
2017-10-18T03:10:11.822Z,0
2017-10-18T03:10:52.222Z,0
2017-10-18T03:11:32.666Z,0
2017-10-18T03:12:13.024Z,0
2017-10-18T03:12:53.473Z,0
2017-10-18T03:13:33.951Z,0
2017-10-18T03:14:14.397Z,0
2017-10-18T03:14:54.770Z,0
2017-10-18T03:15:35.158Z,0
2017-10-18T03:16:15.559Z,0
2017-10-18T03:16:56.017Z,0
2017-10-18T03:17:36.439Z,0
2017-10-18T03:18:16.849Z,0
2017-10-18T03:18:57.242Z,0
2017-10-18T03:19:37.677Z,0
2017-10-18T03:20:18.094Z,0
2017-10-18T03:20:58.533Z,0
2017-10-18T03:21:38.890Z,0
2017-10-18T03:24:12.233Z,0
2017-10-18T03:24:52.223Z,0
2017-10-18T03:25:32.567Z,0
2017-10-18T03:26:13.005Z,0
2017-10-18T03:26:53.398Z,0
2017-10-18T03:27:33.765Z,0
2017-10-18T03:28:14.199Z,0
2017-10-18T03:30:26.807Z,0
2017-10-18T03:32:42.124Z,0
2017-10-18T03:33:21.928Z,0
2017-10-18T03:34:02.380Z,0
2017-10-18T03:34:42.767Z,0
2017-10-18T03:35:23.152Z,0
2017-10-18T03:36:03.535Z,0
2017-10-18T03:36:43.974Z,0
2017-10-18T03:37:24.386Z,0
2017-10-18T03:38:04.841Z,0
2017-10-18T03:38:45.256Z,0
2017-10-18T03:39:25.708Z,0
2017-10-18T03:40:06.091Z,0
2017-10-18T03:40:46.485Z,0
2017-10-18T03:41:26.898Z,0
2017-10-18T03:42:07.297Z,0
2017-10-18T03:42:47.741Z,0
2017-10-18T03:43:28.150Z,0
2017-10-18T03:44:08.554Z,0
2017-10-18T03:44:48.929Z,0
2017-10-18T03:45:29.288Z,0
2017-10-18T03:46:09.713Z,0
2017-10-18T03:46:50.105Z,0
2017-10-18T03:47:30.535Z,0
2017-10-18T03:48:10.959Z,0
2017-10-18T03:50:44.133Z,0
2017-10-18T03:51:24.477Z,0
2017-10-18T03:52:04.891Z,0
2017-10-18T03:52:45.305Z,0
2017-10-18T03:53:25.734Z,0
2017-10-18T03:54:06.179Z,0
2017-10-18T03:54:46.585Z,0
2017-10-18T03:55:27.089Z,0
2017-10-18T03:56:07.470Z,0
2017-10-18T03:56:47.905Z,0
2017-10-18T03:57:28.339Z,0
2017-10-18T03:58:08.773Z,0
2017-10-18T03:58:49.131Z,0
2017-10-18T03:59:29.574Z,0
2017-10-18T04:00:10.018Z,0
2017-10-18T04:00:50.449Z,0
2017-10-18T04:01:30.813Z,0
2017-10-18T04:02:11.236Z,0
2017-10-18T04:02:51.688Z,0
2017-10-18T04:03:32.134Z,0
2017-10-18T04:04:12.541Z,0
2017-10-18T04:04:53.096Z,0
2017-10-18T04:05:33.456Z,0
2017-10-18T04:06:13.932Z,0
2017-10-18T04:06:54.302Z,0
2017-10-18T04:07:34.741Z,0
2017-10-18T04:08:15.090Z,0
2017-10-18T04:08:55.524Z,0
2017-10-18T04:09:35.935Z,0
2017-10-18T04:10:16.366Z,0
2017-10-18T04:10:56.801Z,0
2017-10-18T04:11:37.253Z,0
2017-10-18T04:12:17.633Z,0
2017-10-18T04:12:58.040Z,0
2017-10-18T04:13:38.487Z,0
2017-10-18T04:14:18.933Z,0
2017-10-18T04:14:59.303Z,0
2017-10-18T04:15:39.705Z,0
2017-10-18T04:16:20.079Z,0
2017-10-18T04:17:00.459Z,0
2017-10-18T04:17:40.877Z,0
2017-10-18T04:18:23.180Z,0
2017-10-18T04:19:03.899Z,0
2017-10-18T04:19:44.268Z,0
2017-10-18T04:20:24.649Z,0
2017-10-18T04:21:05.076Z,0
2017-10-18T04:21:45.498Z,0
2017-10-18T04:22:25.923Z,0
2017-10-18T04:23:06.279Z,0
2017-10-18T04:23:46.736Z,0
2017-10-18T04:24:27.093Z,0
2017-10-18T04:25:07.517Z,0
2017-10-18T04:25:47.884Z,0
2017-10-18T04:26:28.280Z,0
2017-10-18T04:27:08.684Z,0
2017-10-18T04:27:49.039Z,0
2017-10-18T04:28:29.440Z,0
2017-10-18T04:29:09.827Z,0
2017-10-18T04:29:50.220Z,0
2017-10-18T04:30:30.614Z,0
2017-10-18T04:31:11.029Z,0
2017-10-18T04:31:51.565Z,0
2017-10-18T04:32:31.993Z,0
2017-10-18T04:33:12.415Z,0
2017-10-18T04:33:52.800Z,0
2017-10-18T04:34:33.174Z,0
2017-10-18T04:35:13.629Z,0
2017-10-18T04:35:54.015Z,0
2017-10-18T04:36:34.427Z,0
2017-10-18T04:37:14.857Z,0
2017-10-18T04:37:55.294Z,0
2017-10-18T04:38:35.675Z,0
2017-10-18T04:39:16.129Z,0
2017-10-18T04:39:56.468Z,0
2017-10-18T04:40:36.886Z,0
2017-10-18T04:41:17.283Z,0
2017-10-18T04:41:57.686Z,0
2017-10-18T04:42:38.091Z,0
2017-10-18T04:43:18.529Z,0
2017-10-18T04:43:58.965Z,0
2017-10-18T04:44:39.318Z,0
2017-10-18T04:45:19.711Z,0
2017-10-18T04:46:00.164Z,0
2017-10-18T04:46:40.561Z,0
2017-10-18T04:47:20.999Z,0
2017-10-18T04:48:01.496Z,0
2017-10-18T04:48:41.900Z,0
2017-10-18T04:49:22.337Z,0
2017-10-18T04:50:02.681Z,0
2017-10-18T04:50:43.086Z,0
2017-10-18T04:51:23.474Z,0
2017-10-18T04:52:03.962Z,0
2017-10-18T04:52:44.269Z,0
2017-10-18T04:53:24.713Z,0
2017-10-18T04:54:05.102Z,0
2017-10-18T04:54:45.484Z,0
2017-10-18T04:55:25.920Z,0
2017-10-18T04:56:06.274Z,0
2017-10-18T04:56:46.651Z,0
2017-10-18T04:57:27.055Z,0
2017-10-18T04:58:07.468Z,0
2017-10-18T04:58:47.903Z,0
2017-10-18T04:59:28.266Z,0
2017-10-18T05:00:08.674Z,0
2017-10-18T05:00:49.090Z,0
2017-10-18T05:01:29.494Z,0
2017-10-18T05:02:09.925Z,0
2017-10-18T05:02:50.393Z,0
2017-10-18T05:03:30.855Z,0
2017-10-18T05:04:11.273Z,0
2017-10-18T05:04:51.722Z,0
2017-10-18T05:05:32.114Z,0
2017-10-18T05:06:12.653Z,0
2017-10-18T05:06:53.154Z,0
2017-10-18T05:07:33.564Z,0
2017-10-18T05:08:13.932Z,0
2017-10-18T05:08:54.521Z,0
2017-10-18T05:09:34.940Z,0
2017-10-18T05:10:15.495Z,0
2017-10-18T05:10:56.053Z,0
2017-10-18T05:11:37.248Z,0
2017-10-18T05:12:17.691Z,0
2017-10-18T05:12:58.108Z,0
2017-10-18T05:13:38.575Z,0
2017-10-18T05:14:19.001Z,0
2017-10-18T05:14:59.437Z,0
2017-10-18T05:15:39.836Z,0
2017-10-18T05:16:20.235Z,0
2017-10-18T05:17:00.665Z,0
2017-10-18T05:17:41.123Z,0
2017-10-18T05:18:21.480Z,0
2017-10-18T05:19:01.869Z,0
2017-10-18T05:19:42.286Z,0
2017-10-18T05:20:22.656Z,0
2017-10-18T05:21:03.092Z,0
2017-10-18T05:21:43.565Z,0
2017-10-18T05:22:24.104Z,0
2017-10-18T05:23:04.512Z,0
2017-10-18T05:23:44.903Z,0
2017-10-18T05:24:25.453Z,0
2017-10-18T05:25:05.866Z,0
2017-10-18T05:25:46.314Z,0
2017-10-18T05:26:26.730Z,0
2017-10-18T05:27:07.137Z,0
2017-10-18T05:27:47.650Z,0
2017-10-18T05:28:28.021Z,0
2017-10-18T05:29:08.450Z,0
2017-10-18T05:29:48.822Z,0
2017-10-18T05:30:29.226Z,0
2017-10-18T05:31:20.775Z,0
2017-10-18T05:32:01.429Z,4
2017-10-18T05:32:44.285Z,4
2017-10-18T05:33:25.111Z,4
2017-10-18T05:34:05.901Z,0
2017-10-18T05:34:46.345Z,0
2017-10-18T05:35:27.160Z,4
2017-10-18T05:36:07.617Z,4
2017-10-18T05:36:48.055Z,0
2017-10-18T05:37:28.576Z,4
2017-10-18T05:38:09.044Z,4
2017-10-18T05:38:49.455Z,4
2017-10-18T05:39:30.153Z,8
2017-10-18T05:40:11.082Z,4
2017-10-18T05:40:51.963Z,4
2017-10-18T05:41:32.539Z,12
2017-10-18T05:42:13.059Z,12
2017-10-18T05:42:53.515Z,8
2017-10-18T05:43:33.894Z,12
2017-10-18T05:44:14.807Z,12
2017-10-18T05:44:55.403Z,16
2017-10-18T05:45:35.975Z,16
2017-10-18T05:46:16.602Z,20
2017-10-18T05:46:57.296Z,20
2017-10-18T05:47:42.497Z,24
2017-10-18T05:48:22.001Z,24
2017-10-18T05:49:02.407Z,32
2017-10-18T05:49:43.855Z,32
2017-10-18T05:50:23.734Z,36
2017-10-18T05:51:04.095Z,36
2017-10-18T05:51:44.490Z,44
2017-10-18T05:52:24.908Z,44
2017-10-18T05:53:05.337Z,48
2017-10-18T05:53:47.033Z,52
2017-10-18T05:54:28.529Z,56
2017-10-18T05:55:08.247Z,60
2017-10-18T05:55:49.415Z,64
2017-10-18T05:56:29.162Z,68
2017-10-18T05:57:09.620Z,72
2017-10-18T05:57:50.170Z,76
2017-10-18T05:58:30.636Z,84
2017-10-18T05:59:10.940Z,88
2017-10-18T06:01:32.183Z,100
2017-10-18T06:02:11.028Z,104
2017-10-18T06:02:51.379Z,116
2017-10-18T06:05:03.604Z,128
2017-10-18T06:06:00.973Z,136
2017-10-18T06:06:56.125Z,144
2017-10-18T06:07:52.894Z,152
2017-10-18T06:08:49.540Z,160
2017-10-18T06:09:45.105Z,168
2017-10-18T06:10:41.876Z,180
2017-10-18T06:11:35.791Z,192
2017-10-18T06:12:30.870Z,204
2017-10-18T06:13:25.047Z,216
2017-10-18T06:14:18.991Z,236
2017-10-18T06:15:14.370Z,256
2017-10-18T06:16:07.692Z,276
2017-10-18T06:17:11.973Z,304
2017-10-18T06:18:22.464Z,328
2017-10-18T06:19:16.482Z,368
2017-10-18T06:20:11.584Z,404
2017-10-18T06:21:05.128Z,448
2017-10-18T06:21:59.404Z,544
2017-10-18T06:26:46.605Z,688
2017-10-18T06:27:42.425Z,1000
2017-10-18T06:28:36.701Z,1184
2017-10-18T06:29:30.400Z,1260
2017-10-18T06:30:24.062Z,1456
2017-10-18T06:31:21.425Z,1596
2017-10-18T06:32:13.956Z,1724
2017-10-18T06:33:10.256Z,1812
2017-10-18T06:35:47.615Z,2568
2017-10-18T06:36:28.044Z,2312
2017-10-18T06:37:08.523Z,2404
2017-10-18T06:37:51.543Z,2916
2017-10-18T06:38:30.774Z,3048
2017-10-18T06:39:11.386Z,3072
2017-10-18T06:39:51.910Z,3180
2017-10-18T06:40:32.564Z,3036
2017-10-18T06:41:13.115Z,3032
2017-10-18T06:41:53.566Z,2492
2017-10-18T06:42:33.974Z,1256
2017-10-18T06:43:14.400Z,1116
2017-10-18T06:43:54.850Z,1028
2017-10-18T06:44:35.267Z,988
2017-10-18T06:45:15.738Z,1108
2017-10-18T06:45:56.157Z,1136
2017-10-18T06:46:36.598Z,1228
2017-10-18T06:49:04.525Z,3496
2017-10-18T06:49:44.832Z,4048
2017-10-18T06:50:25.262Z,4420
2017-10-18T06:51:05.790Z,4432
2017-10-18T06:51:46.350Z,4568
2017-10-18T06:52:26.756Z,4744
2017-10-18T06:53:07.292Z,4860
2017-10-18T06:53:47.739Z,5052
2017-10-18T06:54:28.889Z,5168
2017-10-18T06:55:08.611Z,5156
2017-10-18T06:55:49.056Z,5168
2017-10-18T06:56:29.498Z,4652
2017-10-18T06:57:09.954Z,4032
2017-10-18T06:57:50.486Z,3680
2017-10-18T06:58:30.888Z,3480
2017-10-18T06:59:11.364Z,3672
2017-10-18T06:59:51.749Z,3716
2017-10-18T07:00:32.169Z,3748
2017-10-18T07:01:12.679Z,3844
2017-10-18T07:01:53.135Z,4000
2017-10-18T07:02:33.526Z,4216
2017-10-18T07:03:13.999Z,4332
2017-10-18T07:03:54.451Z,4228
2017-10-18T07:04:34.819Z,4212
2017-10-18T07:05:15.236Z,4660
2017-10-18T07:05:55.643Z,4696
2017-10-18T07:06:36.057Z,4900
2017-10-18T07:07:16.463Z,4584
2017-10-18T07:07:56.954Z,4148
2017-10-18T07:08:37.411Z,2960
2017-10-18T07:09:17.970Z,2416
2017-10-18T07:09:58.415Z,2132
2017-10-18T07:10:38.849Z,2168
2017-10-18T07:11:19.296Z,3084
2017-10-18T07:12:00.006Z,2664
2017-10-18T07:12:40.547Z,2960
2017-10-18T07:13:20.915Z,2616
2017-10-18T07:14:01.367Z,1832
2017-10-18T07:14:41.824Z,1700
2017-10-18T07:15:22.253Z,1644
2017-10-18T07:16:02.745Z,1492
2017-10-18T07:16:43.183Z,1444
2017-10-18T07:17:23.598Z,1164
2017-10-18T07:18:04.090Z,1268
2017-10-18T07:18:44.433Z,1256
2017-10-18T07:19:24.897Z,976
2017-10-18T07:20:05.291Z,860
2017-10-18T07:20:45.861Z,880
2017-10-18T07:21:26.334Z,880
2017-10-18T07:22:06.775Z,868
2017-10-18T07:24:34.832Z,908
2017-10-18T07:25:15.158Z,928
2017-10-18T07:25:55.652Z,968
2017-10-18T07:26:36.093Z,988
2017-10-18T07:27:16.512Z,1148
2017-10-18T07:27:56.896Z,1336
2017-10-18T07:28:37.324Z,1708
2017-10-18T07:29:17.736Z,1564
2017-10-18T07:29:58.150Z,1368
2017-10-18T07:30:38.663Z,1508
2017-10-18T07:31:19.128Z,1772
2017-10-18T07:31:59.539Z,1300
2017-10-18T07:32:40.004Z,1128
2017-10-18T07:33:20.499Z,1136
2017-10-18T07:34:00.976Z,1344
2017-10-18T07:34:41.409Z,1964
2017-10-18T07:35:21.900Z,2052
2017-10-18T07:36:02.339Z,2088
2017-10-18T07:36:42.736Z,1924
2017-10-18T07:37:23.175Z,1860
2017-10-18T07:38:03.676Z,2060
2017-10-18T07:38:44.084Z,2192
2017-10-18T07:39:24.601Z,2232
2017-10-18T07:40:06.184Z,2088
2017-10-18T07:40:46.694Z,1880
2017-10-18T07:41:27.269Z,1588
2017-10-18T07:42:07.768Z,1380
2017-10-18T07:42:48.227Z,1360
2017-10-18T07:45:40.119Z,1360
2017-10-18T07:46:34.817Z,1412
2017-10-18T07:47:32.064Z,1384
2017-10-18T07:48:28.078Z,1416
2017-10-18T07:49:25.696Z,1400
2017-10-18T07:53:47.656Z,1552
2017-10-18T07:54:28.187Z,1672
2017-10-18T07:55:08.697Z,1696
2017-10-18T07:55:49.111Z,1728
2017-10-18T07:56:29.620Z,1724
2017-10-18T07:57:10.196Z,1724
2017-10-18T07:57:50.665Z,1740
2017-10-18T07:58:31.169Z,1732
2017-10-18T07:59:11.654Z,1724
2017-10-18T07:59:52.094Z,1728
2017-10-18T08:00:32.711Z,1732
2017-10-18T08:01:13.127Z,1716
2017-10-18T08:01:53.545Z,1644
2017-10-18T08:02:34.054Z,1580
2017-10-18T08:03:14.745Z,1616
2017-10-18T08:03:55.432Z,1616
2017-10-18T08:04:35.948Z,1640
2017-10-18T08:05:16.960Z,1640
2017-10-18T08:05:58.338Z,1608
2017-10-18T08:06:39.001Z,1580
2017-10-18T08:07:20.322Z,1592
2017-10-18T08:08:00.992Z,1512
2017-10-18T08:08:41.848Z,1420
2017-10-18T08:09:22.682Z,1416
2017-10-18T08:10:03.552Z,1564
2017-10-18T08:10:44.035Z,1644
2017-10-18T08:11:24.657Z,1652
2017-10-18T08:12:05.759Z,1688
2017-10-18T08:12:46.261Z,1696
2017-10-18T08:13:28.369Z,1696
2017-10-18T08:14:08.854Z,1712
2017-10-18T08:14:49.002Z,1712
2017-10-18T08:15:29.800Z,1716
2017-10-18T08:16:10.425Z,1708
2017-10-18T08:16:51.826Z,1704
2017-10-18T08:17:31.819Z,1708
2017-10-18T08:18:12.961Z,1700
2017-10-18T08:18:53.413Z,1676
2017-10-18T08:19:34.829Z,1688
2017-10-18T08:20:15.281Z,1700
2017-10-18T08:20:55.718Z,1708
2017-10-18T08:21:36.423Z,1712
2017-10-18T08:22:16.982Z,1712
2017-10-18T08:22:58.340Z,1712
2017-10-18T08:23:38.301Z,1368
2017-10-18T08:24:18.805Z,1560
2017-10-18T08:24:59.311Z,1648
2017-10-18T08:25:39.786Z,1680
2017-10-18T08:26:20.349Z,1684
2017-10-18T08:27:00.650Z,1692
2017-10-18T08:27:41.384Z,1696
2017-10-18T08:28:21.564Z,1704
2017-10-18T08:29:02.319Z,1708
2017-10-18T08:29:42.998Z,1708
2017-10-18T08:30:23.410Z,1708
2017-10-18T08:31:03.873Z,1704
2017-10-18T08:31:44.367Z,1704
2017-10-18T08:32:24.832Z,1700
2017-10-18T08:33:05.355Z,1708
2017-10-18T08:33:46.132Z,1708
2017-10-18T08:34:26.795Z,1708
2017-10-18T08:35:08.381Z,1708
2017-10-18T08:35:48.533Z,1708
2017-10-18T08:36:29.016Z,1708
2017-10-18T08:37:09.475Z,1708
2017-10-18T08:37:49.930Z,1704
2017-10-18T08:38:30.416Z,1700
2017-10-18T08:39:13.408Z,1700
2017-10-18T08:39:53.900Z,1696
2017-10-18T08:40:34.272Z,1692
2017-10-18T08:41:14.716Z,1684
2017-10-18T08:41:55.227Z,1688
2017-10-18T08:42:35.682Z,1688
2017-10-18T08:43:16.136Z,1684
2017-10-18T08:43:56.589Z,1684
2017-10-18T08:44:37.115Z,1684
2017-10-18T08:45:17.571Z,1684
2017-10-18T08:45:58.884Z,1680
2017-10-18T08:46:39.369Z,1684
2017-10-18T08:47:20.492Z,1680
2017-10-18T08:48:01.006Z,1676
2017-10-18T08:48:41.468Z,1672
2017-10-18T08:49:21.895Z,1672
2017-10-18T08:50:02.389Z,1668
2017-10-18T08:50:42.925Z,1664
2017-10-18T08:51:23.346Z,1664
2017-10-18T08:52:03.731Z,1660
2017-10-18T08:52:44.491Z,1656
2017-10-18T08:53:25.970Z,1656
2017-10-18T08:54:06.442Z,1652
2017-10-18T08:54:46.848Z,1652
2017-10-18T08:55:27.456Z,1648
2017-10-18T08:56:07.991Z,1644
2017-10-18T08:56:48.367Z,1644
2017-10-18T08:57:28.837Z,1640
2017-10-18T08:59:50.683Z,1636
2017-10-18T09:00:32.281Z,1636
2017-10-18T09:01:12.044Z,1628
2017-10-18T09:01:52.381Z,1628
2017-10-18T09:02:32.954Z,1628
2017-10-18T09:03:13.482Z,1624
2017-10-18T09:03:53.955Z,1624
2017-10-18T09:04:34.496Z,1624
2017-10-18T09:05:15.087Z,1620
2017-10-18T09:05:55.552Z,1616
2017-10-18T09:06:36.215Z,1612
2017-10-18T09:07:16.704Z,1612
2017-10-18T09:07:57.271Z,1608
2017-10-18T09:08:37.908Z,1608
2017-10-18T09:09:18.348Z,1604
2017-10-18T09:11:36.306Z,1600
2017-10-18T09:12:16.305Z,1596
2017-10-18T09:12:56.930Z,1596
2017-10-18T09:13:37.348Z,1592
2017-10-18T09:14:17.910Z,1592
2017-10-18T09:14:58.464Z,1588
2017-10-18T09:15:38.747Z,1588
2017-10-18T09:16:19.189Z,1588
2017-10-18T09:16:59.672Z,1584
2017-10-18T09:17:40.181Z,1580
2017-10-18T09:18:20.603Z,1580
2017-10-18T09:19:01.073Z,1580
2017-10-18T09:19:41.562Z,1580
2017-10-18T09:20:21.964Z,1576
2017-10-18T09:21:02.423Z,1576
2017-10-18T09:21:42.916Z,1572
2017-10-18T09:22:23.358Z,1568
2017-10-18T09:23:03.869Z,1568
2017-10-18T09:23:44.344Z,1564
2017-10-18T09:24:24.796Z,1564
2017-10-18T09:25:06.412Z,1564
2017-10-18T09:25:46.590Z,1556
2017-10-18T09:26:27.389Z,1552
2017-10-18T09:27:08.120Z,1316
2017-10-18T09:29:28.575Z,1544
2017-10-18T09:30:07.291Z,1540
2017-10-18T09:30:47.750Z,1544
2017-10-18T09:31:28.216Z,1540
2017-10-18T09:32:08.744Z,1528
2017-10-18T09:32:49.168Z,1448
2017-10-18T09:33:29.859Z,1428
2017-10-18T09:34:10.282Z,1328
2017-10-18T09:34:50.769Z,1344
2017-10-18T09:35:31.195Z,1448
2017-10-18T09:36:11.755Z,1384
2017-10-18T09:36:52.266Z,1340
2017-10-18T09:38:59.455Z,1456
2017-10-18T09:39:40.444Z,1460
2017-10-18T09:40:20.899Z,1464
2017-10-18T09:41:01.398Z,1468
2017-10-18T09:41:42.438Z,1472
2017-10-18T09:42:22.691Z,1480
2017-10-18T09:43:03.237Z,1488
2017-10-18T09:43:43.676Z,1496
2017-10-18T09:44:24.345Z,1504
2017-10-18T09:45:05.134Z,1508
2017-10-18T09:45:45.551Z,1508
2017-10-18T09:46:26.006Z,1512
2017-10-18T09:47:06.562Z,1516
2017-10-18T09:47:47.143Z,1520
2017-10-18T09:48:27.665Z,1524
2017-10-18T09:49:08.104Z,1532
2017-10-18T09:49:48.520Z,1536
2017-10-18T09:50:29.111Z,1536
2017-10-18T09:51:10.087Z,1544
2017-10-18T09:53:30.006Z,1572
2017-10-18T09:54:29.792Z,1584
2017-10-18T09:55:10.242Z,1592
2017-10-18T09:55:50.776Z,1592
2017-10-18T09:56:31.170Z,1600
2017-10-18T09:57:11.589Z,1604
2017-10-18T09:57:52.047Z,1604
2017-10-18T09:58:32.569Z,1604
2017-10-18T09:59:13.156Z,1604
2017-10-18T09:59:53.595Z,1600
2017-10-18T10:00:34.082Z,1604
2017-10-18T10:01:14.512Z,1600
2017-10-18T10:01:55.044Z,1596
2017-10-18T10:02:35.399Z,1596
2017-10-18T10:03:15.873Z,1592
2017-10-18T10:03:56.516Z,1592
2017-10-18T10:04:36.969Z,1584
2017-10-18T10:05:17.322Z,1588
2017-10-18T10:05:58.149Z,1588
2017-10-18T10:06:38.962Z,1588
2017-10-18T10:07:19.420Z,1584
2017-10-18T10:07:59.937Z,1584
2017-10-18T10:08:40.463Z,1584
2017-10-18T10:09:20.894Z,1580
2017-10-18T10:10:01.413Z,1580
2017-10-18T10:10:42.773Z,1576
2017-10-18T10:11:23.173Z,1572
2017-10-18T10:12:03.929Z,1568
2017-10-18T10:12:44.399Z,1568
2017-10-18T10:13:25.042Z,1564
2017-10-18T10:14:05.575Z,1564
2017-10-18T10:14:45.949Z,1560
2017-10-18T10:15:26.577Z,1556
2017-10-18T10:16:06.956Z,1556
2017-10-18T10:16:47.664Z,1552
2017-10-18T10:17:29.419Z,1552
2017-10-18T10:18:10.392Z,1544
2017-10-18T10:18:51.510Z,1540
2017-10-18T10:19:34.357Z,1536
2017-10-18T10:20:15.621Z,1536
2017-10-18T10:20:56.003Z,1528
2017-10-18T10:21:36.893Z,1528
2017-10-18T10:22:18.774Z,1524
2017-10-18T10:23:01.512Z,1520
2017-10-18T10:23:44.517Z,1520
2017-10-18T10:24:24.579Z,1516
2017-10-18T10:25:04.972Z,1512
2017-10-18T10:25:45.397Z,1508
2017-10-18T10:26:25.824Z,1500
2017-10-18T10:27:06.359Z,1492
2017-10-18T10:27:46.857Z,1488
2017-10-18T10:28:27.322Z,1488
2017-10-18T10:29:07.850Z,1488
2017-10-18T10:29:49.010Z,1488
2017-10-18T10:30:29.513Z,1480
2017-10-18T10:31:09.916Z,1476
2017-10-18T10:31:50.454Z,1476
2017-10-18T10:32:31.101Z,1472
2017-10-18T10:33:11.344Z,1472